Oceanus — WXAQ — position and weather

sailwx.info

Track history (hours):
 
Tides and Currents Weather Stations Pressure Air Temp Water Temp Dewpoint Dewpoint Depression Visibility Wind Speed Wind Dir Waves Ship Positions

Oceanographic research ship Oceanus (USA)

Detailed information on ship capabilities available from University of Delaware's Ocean Information Center and ARCUS's ALIAS (Arctic Logistics Information and Support) project.

Owner: Oregon State University, Newport, OR. More information available from US FCC via Universal Licensing System.

Last reported at 2017-Oct-16 07:00 UTC. Time now 2017-Oct-20 07:07 UTC.
Position N 38°29' W 123°52'.

Length 23 m; draft 5.3 m.

Type: Other ship. MMSI: 367977000.

Date/timePositionNaut miles runAvg speedWind from/ knotsBaromVisibWave heightAir tempDewpointWater temp
2017-Oct-16 07:00N 38°29' W 123°52'611.2
2017-Oct-16 06:30N 38°23' W 123°50'611.0
2017-Oct-16 06:00N 38°18' W 123°48'511.0
2017-Oct-16 05:30N 38°13' W 123°46'510.5
2017-Oct-16 05:00N 38°08' W 123°44'510.6
2017-Oct-16 04:30N 38°03' W 123°43'511.0
2017-Oct-16 04:00N 37°57' W 123°41'611.2
2017-Oct-16 03:30N 37°52' W 123°39'11110.8
2017-Oct-15 17:13N 36°39' W 121°54'2 9.5
2017-Oct-15 17:00N 36°37' W 121°53'0 0.6
2017-Oct-15 16:30N 36°37' W 121°53'0 0.2
2017-Oct-15 16:00N 36°37' W 121°53'80 9.4
2017-Oct-15 07:30N 35°25' W 121°09'1711.4
2017-Oct-15 06:00N 35°12' W 120°55'611.4
2017-Oct-15 05:30N 35°08' W 120°51'510.6
2017-Oct-15 05:00N 35°03' W 120°47'7 4.2
2017-Oct-15 03:17N 34°57' W 120°44'2 5.6
2017-Oct-15 03:00N 34°55' W 120°44'2 4.1
2017-Oct-15 02:30N 34°54' W 120°41'2 4.3
2017-Oct-15 02:00N 34°54' W 120°44'2 4.5
2017-Oct-15 01:30N 34°51' W 120°43'2 4.1
2017-Oct-15 01:00N 34°52' W 120°41'1 2.9
2017-Oct-15 00:30N 34°53' W 120°39'1 1.4
2017-Oct-15 00:00N 34°53' W 120°40'1 1.9
2017-Oct-14 23:30N 34°53' W 120°41'1 1.8
2017-Oct-14 23:00N 34°53' W 120°42'1 2.0
2017-Oct-14 22:30N 34°54' W 120°43'1 1.7
2017-Oct-14 22:00N 34°55' W 120°42'1 1.2
2017-Oct-14 21:30N 34°55' W 120°41'1 2.2
2017-Oct-14 21:00N 34°54' W 120°43'1 2.4
2017-Oct-14 20:30N 34°53' W 120°43'1 2.2
2017-Oct-14 20:00N 34°53' W 120°41'1 1.9
2017-Oct-14 19:30N 34°53' W 120°40'1 2.4
2017-Oct-14 19:00N 34°53' W 120°42'1 1.9
2017-Oct-14 18:30N 34°53' W 120°43'1 2.6
2017-Oct-14 18:00N 34°55' W 120°43'1 2.5
2017-Oct-14 17:30N 34°54' W 120°41'1 2.4
2017-Oct-14 17:00N 34°55' W 120°43'1 2.3
2017-Oct-14 16:30N 34°53' W 120°43'1 1.7
2017-Oct-14 16:00N 34°53' W 120°43'1 1.9
2017-Oct-14 15:30N 34°52' W 120°42'2 4.4
2017-Oct-14 15:01N 34°52' W 120°40'3 5.0
2017-Oct-14 14:30N 34°52' W 120°43'1 2.9
2017-Oct-14 13:59N 34°53' W 120°44'3 5.2
2017-Oct-14 13:30N 34°55' W 120°44'1 0.6
2017-Oct-14 11:40N 34°56' W 120°44'1 4.9
2017-Oct-14 11:30N 34°55' W 120°44'3 5.0
2017-Oct-14 11:00N 34°53' W 120°44'2 3.1
2017-Oct-14 10:30N 34°51' W 120°44'3 5.4
2017-Oct-14 10:00N 34°52' W 120°41'0 0.7
2017-Oct-14 09:30N 34°52' W 120°41'2 4.6
2017-Oct-14 09:00N 34°52' W 120°44'3 5.5
2017-Oct-14 08:30N 34°54' W 120°44'3 5.4
2017-Oct-14 08:00N 34°57' W 120°44'1 0.6
2017-Oct-14 06:36N 34°56' W 120°44'1 5.4
2017-Oct-14 06:30N 34°56' W 120°44'3 5.6
2017-Oct-14 06:00N 34°53' W 120°44'2 3.4
2017-Oct-14 05:30N 34°52' W 120°42'2 4.9
2017-Oct-14 05:00N 34°52' W 120°40'3 5.8
2017-Oct-14 04:30N 34°52' W 120°43'2 3.7
2017-Oct-14 04:00N 34°53' W 120°44'7 5.7
2017-Oct-14 02:43N 35°01' W 120°44'1 5.6
2017-Oct-14 02:31N 35°02' W 120°44'3 5.0
2017-Oct-14 02:00N 35°01' W 120°41'3 1.3
2017-Oct-14 00:04N 35°01' W 120°44'1 5.9
2017-Oct-13 23:58N 35°01' W 120°44'3 4.7
2017-Oct-13 23:20N 35°01' W 120°40'1 3.7
2017-Oct-13 23:00N 35°00' W 120°40'3 4.6
2017-Oct-13 22:20N 34°57' W 120°41'2 3.5
2017-Oct-13 21:42N 34°59' W 120°44'0 0.4
2017-Oct-13 20:57N 34°59' W 120°44'2 4.8
2017-Oct-13 20:30N 35°01' W 120°44'2 3.3
2017-Oct-13 20:00N 35°02' W 120°42'2 4.4
2017-Oct-13 19:30N 35°01' W 120°40'3 1.9
2017-Oct-13 17:41N 35°00' W 120°44'1 5.6
2017-Oct-13 17:30N 35°01' W 120°44'2 4.5
2017-Oct-13 17:00N 35°01' W 120°41'1 2.9
2017-Oct-13 16:30N 35°01' W 120°40'3 1.9
2017-Oct-13 14:50N 35°01' W 120°44'1 3.6
2017-Oct-13 14:30N 35°02' W 120°43'2 4.8
2017-Oct-13 14:00N 35°01' W 120°40'2 3.9
2017-Oct-13 13:30N 34°59' W 120°40'3 2.0
2017-Oct-13 11:56N 35°00' W 120°44'2 4.3
2017-Oct-13 11:30N 35°02' W 120°44'0 0.4
2017-Oct-13 11:00N 35°02' W 120°44'2 4.1
2017-Oct-13 10:30N 35°00' W 120°43'4 1.9
2017-Oct-13 08:32N 34°56' W 120°43'0 2.3
2017-Oct-13 08:30N 34°56' W 120°43'1 2.2
2017-Oct-13 07:59N 34°56' W 120°44'1 2.4
2017-Oct-13 07:30N 34°56' W 120°46'1 2.3
2017-Oct-13 07:00N 34°56' W 120°47'0 0.7
2017-Oct-13 06:30N 34°56' W 120°47'2 4.5
2017-Oct-13 06:00N 34°56' W 120°50'0 1.0
2017-Oct-13 05:30N 34°56' W 120°51'2 3.3
2017-Oct-13 05:00N 34°57' W 120°53'1 2.0
2017-Oct-13 04:30N 34°56' W 120°54'2 4.4
2017-Oct-13 04:00N 34°57' W 120°57'0 0.6
2017-Oct-13 03:30N 34°56' W 120°57'2 3.5
2017-Oct-13 03:00N 34°58' W 120°55'2 4.7
2017-Oct-13 02:30N 34°59' W 120°53'2 4.6
2017-Oct-13 02:00N 34°60' W 120°50'4 2.2
2017-Oct-13 00:15N 35°02' W 120°46'0 1.1
2017-Oct-12 23:59N 35°02' W 120°46'1 1.1
2017-Oct-12 23:30N 35°02' W 120°45'0 1.0
2017-Oct-12 23:00N 35°02' W 120°44'0 0.9
2017-Oct-12 22:30N 35°02' W 120°44'0 1.0
2017-Oct-12 22:00N 35°02' W 120°43'0 0.3
2017-Oct-12 21:30N 35°02' W 120°43'0 0.4
2017-Oct-12 21:00N 35°02' W 120°43'0 0.3
2017-Oct-12 20:30N 35°02' W 120°43'0 0.0
2017-Oct-12 20:00N 35°02' W 120°43'0 0.1
2017-Oct-12 19:30N 35°02' W 120°43'0 0.3
2017-Oct-12 19:00N 35°02' W 120°42'2 3.9
2017-Oct-12 18:25N 35°01' W 120°40'2 4.8
2017-Oct-12 18:00N 34°59' W 120°40'3 2.1
2017-Oct-12 16:32N 35°01' W 120°44'0 5.0
2017-Oct-12 16:30N 35°01' W 120°44'1 2.8
2017-Oct-12 16:00N 35°02' W 120°45'0 0.5
2017-Oct-12 15:30N 35°02' W 120°44'0 0.3
2017-Oct-12 15:00N 35°02' W 120°44'2 4.4
2017-Oct-12 14:30N 35°02' W 120°42'2 3.4
2017-Oct-12 14:00N 35°01' W 120°40'4 2.5
2017-Oct-12 12:33N 34°59' W 120°44'1 5.2
2017-Oct-12 12:16N 35°01' W 120°44'1 5.2
2017-Oct-12 12:00N 35°02' W 120°44'1 1.0
2017-Oct-12 11:30N 35°01' W 120°44'1 0.4
2017-Oct-12 09:26N 35°00' W 120°44'1 2.9
2017-Oct-12 08:59N 35°02' W 120°44'1 0.3
2017-Oct-12 05:23N 35°01' W 120°44'1 3.4
2017-Oct-12 05:00N 35°02' W 120°43'2 3.6
2017-Oct-12 04:30N 35°02' W 120°41'1 2.1
2017-Oct-12 03:56N 35°01' W 120°40'1 1.7
2017-Oct-12 03:30N 35°02' W 120°39'1 1.8
2017-Oct-12 03:00N 35°03' W 120°39'2 2.0
2017-Oct-12 01:55N 35°01' W 120°40'1 1.9
2017-Oct-12 01:28N 34°60' W 120°40'1 1.8
2017-Oct-12 01:00N 34°59' W 120°40'0 0.6
2017-Oct-12 00:30N 34°59' W 120°40'1 2.2
2017-Oct-12 00:00N 35°01' W 120°40'1 2.2
2017-Oct-11 23:27N 35°02' W 120°40'1 1.9
2017-Oct-11 23:00N 35°03' W 120°39'2 1.7
2017-Oct-11 21:39N 35°00' W 120°40'0 2.5
2017-Oct-11 21:30N 34°60' W 120°40'1 1.9
2017-Oct-11 21:00N 34°59' W 120°40'1 2.4
2017-Oct-11 20:30N 35°00' W 120°40'1 2.4
2017-Oct-11 19:59N 35°01' W 120°40'1 2.5
2017-Oct-11 19:30N 35°03' W 120°39'2 1.8
2017-Oct-11 18:19N 35°00' W 120°40'1 2.2
2017-Oct-11 18:00N 34°60' W 120°40'1 2.0
2017-Oct-11 17:30N 34°59' W 120°40'1 1.2
2017-Oct-11 17:00N 34°59' W 120°40'6 0.4
2017-Oct-11 00:00N 34°53' W 120°41'1 2.0
2017-Oct-10 23:30N 34°53' W 120°42'1 1.6
2017-Oct-10 23:00N 34°53' W 120°43'1 1.7
2017-Oct-10 22:30N 34°54' W 120°43'1 1.3
2017-Oct-10 22:00N 34°55' W 120°42'1 1.9
2017-Oct-10 21:31N 34°54' W 120°41'1 1.8
2017-Oct-10 21:00N 34°55' W 120°42'1 1.5
2017-Oct-10 20:30N 34°54' W 120°43'1 1.9
2017-Oct-10 20:00N 34°53' W 120°43'1 1.9
2017-Oct-10 19:30N 34°53' W 120°42'1 2.0
2017-Oct-10 19:00N 34°53' W 120°40'0 0.4
2017-Oct-10 18:30N 34°53' W 120°41'1 1.9
2017-Oct-10 18:00N 34°53' W 120°42'1 1.6
2017-Oct-10 17:30N 34°53' W 120°43'1 1.8
2017-Oct-10 17:00N 34°54' W 120°43'1 1.4
2017-Oct-10 16:30N 34°55' W 120°42'1 1.4
2017-Oct-10 16:00N 34°55' W 120°41'1 2.7
2017-Oct-10 15:30N 34°55' W 120°43'6 2.8
2017-Oct-10 13:21N 35°01' W 120°44'1 2.9
2017-Oct-10 13:00N 35°02' W 120°44'1 0.8
2017-Oct-10 11:33N 35°01' W 120°44'0 4.9
2017-Oct-10 11:30N 35°01' W 120°44'1 1.1
2017-Oct-10 11:01N 35°01' W 120°44'0 0.3
2017-Oct-10 09:16N 35°01' W 120°44'1 4.0
2017-Oct-10 09:00N 35°02' W 120°44'1 1.7
2017-Oct-10 08:30N 35°01' W 120°45'0 0.4
2017-Oct-10 07:59N 35°01' W 120°45'0 0.4
2017-Oct-10 07:30N 35°01' W 120°45'1 0.8
2017-Oct-10 06:08N 35°00' W 120°44'0 1.8
2017-Oct-10 05:59N 35°01' W 120°44'1 3.0
2017-Oct-10 05:30N 35°02' W 120°44'2 0.9
2017-Oct-10 03:27N 35°00' W 120°44'1 1.3
2017-Oct-10 03:00N 35°01' W 120°44'2 3.3
2017-Oct-10 02:30N 35°02' W 120°44'2 3.0
2017-Oct-10 02:00N 35°01' W 120°44'0 0.9
2017-Oct-10 01:30N 35°00' W 120°43'2 3.3
2017-Oct-10 01:00N 35°01' W 120°45'2 0.8
2017-Oct-09 22:57N 35°00' W 120°44'2 3.9
2017-Oct-09 22:30N 35°02' W 120°44'1 1.4
2017-Oct-09 22:00N 35°02' W 120°45'1 1.3
2017-Oct-09 21:30N 35°02' W 120°44'6 8.9
2017-Oct-09 20:47N 35°02' W 120°52'311.9
2017-Oct-09 20:30N 35°02' W 120°56'612.2
2017-Oct-09 20:00N 35°02' W 121°03'3 5.3
2017-Oct-09 19:30N 35°01' W 121°00'811.8
2017-Oct-09 18:48N 35°05' W 120°51'312.0
2017-Oct-09 18:30N 35°06' W 120°47'4 7.5
2017-Oct-09 18:00N 35°08' W 120°43'2 4.4
2017-Oct-09 17:30N 35°06' W 120°42'4 7.3
2017-Oct-09 17:00N 35°02' W 120°42'2 3.8
2017-Oct-09 16:30N 35°01' W 120°42'1 1.5
2017-Oct-09 16:00N 35°00' W 120°41'0 1.0
2017-Oct-09 15:30N 35°01' W 120°41'0 0.8
2017-Oct-09 15:00N 35°00' W 120°41'1 2.5
2017-Oct-09 14:30N 34°60' W 120°40'0 0.9
2017-Oct-09 14:00N 34°60' W 120°40'5 7.2
2017-Oct-09 13:22N 34°56' W 120°43'4 9.2
2017-Oct-09 12:56N 34°52' W 120°42'0 0.7
2017-Oct-09 12:27N 34°51' W 120°42'4 8.3
2017-Oct-09 12:00N 34°55' W 120°43'5 9.6
2017-Oct-09 11:30N 34°59' W 120°40'0 0.5
2017-Oct-09 10:58N 34°59' W 120°40'0 0.1
2017-Oct-09 10:20N 34°59' W 120°40'0 1.1
2017-Oct-09 10:00N 34°59' W 120°40'1 1.1
2017-Oct-09 09:30N 34°59' W 120°41'1 1.7
2017-Oct-09 09:00N 34°60' W 120°42'1 0.3
2017-Oct-09 06:34N 34°60' W 120°42'0 2.1
2017-Oct-09 06:27N 34°60' W 120°42'1 2.1
2017-Oct-09 05:59N 34°59' W 120°41'1 2.0
2017-Oct-09 05:29N 34°59' W 120°40'1 1.4
2017-Oct-09 04:57N 34°59' W 120°41'1 1.9
2017-Oct-09 04:21N 34°60' W 120°42'1 0.2
2017-Oct-09 00:40N 34°59' W 120°41'0 1.3
2017-Oct-09 00:30N 34°59' W 120°41'1 1.7
2017-Oct-09 00:00N 34°59' W 120°40'2 3.0
2017-Oct-08 23:29N 35°01' W 120°40'1 1.5
2017-Oct-08 22:49N 35°01' W 120°39'0 0.4
2017-Oct-08 22:29N 35°01' W 120°39'0 0.4
2017-Oct-08 21:50N 35°01' W 120°40'1 2.0
2017-Oct-08 21:22N 35°00' W 120°40'0 0.6
2017-Oct-08 20:59N 35°00' W 120°40'0 0.3
2017-Oct-08 20:30N 35°00' W 120°40'1 2.7
2017-Oct-08 19:59N 35°01' W 120°41'0 0.9
2017-Oct-08 19:29N 35°01' W 120°42'0 0.1
2017-Oct-08 19:00N 35°01' W 120°42'0 0.2
2017-Oct-08 18:31N 35°01' W 120°42'1 2.1
2017-Oct-08 18:00N 34°60' W 120°41'1 1.9
2017-Oct-08 17:29N 34°59' W 120°41'0 0.6
2017-Oct-08 16:56N 34°59' W 120°40'0 0.5
2017-Oct-08 16:30N 34°59' W 120°40'1 1.7
2017-Oct-08 16:00N 34°60' W 120°40'0 0.5
2017-Oct-08 15:30N 34°60' W 120°40'1 1.8
2017-Oct-08 14:58N 34°60' W 120°41'0 1.0
2017-Oct-08 14:30N 34°60' W 120°40'0 0.7
2017-Oct-08 14:00N 34°60' W 120°41'2 3.3
2017-Oct-08 13:30N 34°60' W 120°43'1 1.1
2017-Oct-08 13:00N 34°60' W 120°42'1 1.1
2017-Oct-08 12:30N 34°59' W 120°41'1 1.2
2017-Oct-08 12:00N 34°59' W 120°40'0 0.8
2017-Oct-08 11:30N 34°59' W 120°40'2 4.5
2017-Oct-08 11:00N 34°60' W 120°43'0 0.1
2017-Oct-08 09:09N 34°60' W 120°43'0 1.4
2017-Oct-08 09:00N 34°60' W 120°42'1 1.4
2017-Oct-08 08:30N 34°60' W 120°41'1 1.3
2017-Oct-08 08:00N 34°59' W 120°41'1 1.6
2017-Oct-08 07:31N 34°59' W 120°40'1 1.5
2017-Oct-08 06:59N 34°59' W 120°41'1 1.9
2017-Oct-08 06:30N 34°60' W 120°42'1 0.5
2017-Oct-08 04:37N 34°60' W 120°43'0 2.2
2017-Oct-08 04:30N 34°60' W 120°42'1 2.0
2017-Oct-08 03:59N 34°59' W 120°41'1 1.9
2017-Oct-08 03:29N 34°59' W 120°40'1 1.1
2017-Oct-08 03:00N 34°59' W 120°40'0 0.8
2017-Oct-08 02:30N 34°59' W 120°40'0 0.3
2017-Oct-08 02:00N 34°59' W 120°40'0 0.7
2017-Oct-08 01:29N 34°59' W 120°41'0 0.6
2017-Oct-08 01:01N 34°59' W 120°40'0 0.6
2017-Oct-08 00:30N 34°59' W 120°40'0 0.4
2017-Oct-08 00:00N 34°59' W 120°40'1 2.9
2017-Oct-07 23:30N 35°01' W 120°40'1 1.7
2017-Oct-07 23:00N 35°01' W 120°40'1 2.2
2017-Oct-07 22:30N 35°00' W 120°40'0 0.5
2017-Oct-07 22:00N 35°00' W 120°40'0 0.3
2017-Oct-07 21:31N 35°01' W 120°40'1 0.9
2017-Oct-07 20:51N 35°00' W 120°41'1 1.7
2017-Oct-07 20:06N 34°59' W 120°42'0 1.3
2017-Oct-07 19:57N 34°59' W 120°42'1 1.5
2017-Oct-07 19:28N 34°59' W 120°41'0 0.3
2017-Oct-07 18:21N 34°59' W 120°41'0 0.5
2017-Oct-07 18:00N 34°59' W 120°41'1 2.1
2017-Oct-07 17:26N 34°60' W 120°40'0 0.6
2017-Oct-07 17:00N 34°60' W 120°40'0 0.9
2017-Oct-07 16:28N 34°59' W 120°40'1 1.6
2017-Oct-07 15:59N 34°59' W 120°41'1 0.4
2017-Oct-07 14:22N 34°59' W 120°40'3 1.1
2017-Oct-07 11:43N 34°56' W 120°43'1 2.8
2017-Oct-07 11:28N 34°56' W 120°44'1 1.7
2017-Oct-07 10:58N 34°57' W 120°45'1 1.2
2017-Oct-07 10:31N 34°57' W 120°45'2 3.1
2017-Oct-07 10:00N 34°57' W 120°47'1 1.2
2017-Oct-07 09:30N 34°57' W 120°48'2 3.7
2017-Oct-07 09:00N 34°57' W 120°50'1 2.2
2017-Oct-07 08:28N 34°56' W 120°52'1 1.6
2017-Oct-07 07:59N 34°57' W 120°53'0 0.4
2017-Oct-07 07:28N 34°56' W 120°53'3 4.4
2017-Oct-07 06:48N 34°57' W 120°57'0 0.1
2017-Oct-07 06:25N 34°57' W 120°57'1 3.3
2017-Oct-07 06:00N 34°57' W 120°55'3 4.9
2017-Oct-07 05:28N 34°58' W 120°52'2 5.0
2017-Oct-07 04:59N 34°58' W 120°49'4 5.0
2017-Oct-07 04:12N 34°59' W 120°45'2 4.8
2017-Oct-07 03:47N 34°59' W 120°42'0 0.5
2017-Oct-07 03:28N 34°59' W 120°42'0 0.2
2017-Oct-07 02:58N 34°59' W 120°42'1 1.3
2017-Oct-07 01:55N 35°00' W 120°43'1 1.2
2017-Oct-07 01:27N 34°60' W 120°43'1 1.2
2017-Oct-07 01:00N 34°60' W 120°42'4 6.2
2017-Oct-07 00:23N 34°58' W 120°47'3 8.0
2017-Oct-07 00:00N 34°57' W 120°50'1 1.9
2017-Oct-06 23:31N 34°56' W 120°51'0 1.0
2017-Oct-06 23:00N 34°56' W 120°50'0 0.4
2017-Oct-06 22:30N 34°56' W 120°50'1 1.1
2017-Oct-06 22:00N 34°56' W 120°50'2 3.6
2017-Oct-06 21:30N 34°56' W 120°47'0 0.6
2017-Oct-06 21:00N 34°56' W 120°47'1 1.3
2017-Oct-06 20:30N 34°57' W 120°47'0 0.7
2017-Oct-06 20:00N 34°56' W 120°47'0 0.2
2017-Oct-06 19:31N 34°56' W 120°47'0 0.5
2017-Oct-06 19:00N 34°56' W 120°47'0 0.1
2017-Oct-06 18:30N 34°56' W 120°47'1 2.2
2017-Oct-06 18:00N 34°57' W 120°46'5 8.3
2017-Oct-06 17:24N 34°59' W 120°41'0 0.1
2017-Oct-06 17:00N 34°59' W 120°41'0 0.1
2017-Oct-06 16:26N 34°59' W 120°40'1 2.8
2017-Oct-06 15:55N 34°59' W 120°42'0 0.4
2017-Oct-06 15:30N 34°59' W 120°42'1 0.9
2017-Oct-06 14:40N 35°00' W 120°43'1 6.1
2017-Oct-06 14:31N 35°01' W 120°42'1 1.6
2017-Oct-06 14:00N 35°00' W 120°42'0 0.6
2017-Oct-06 13:30N 35°00' W 120°41'1 0.3
2017-Oct-06 10:56N 34°60' W 120°42'1 1.8
2017-Oct-06 10:30N 34°59' W 120°41'1 1.7
2017-Oct-06 10:00N 34°59' W 120°40'0 0.4
2017-Oct-06 09:30N 34°59' W 120°40'1 1.7
2017-Oct-06 09:01N 34°60' W 120°41'1 1.7
2017-Oct-06 08:29N 34°60' W 120°42'  
Track history (hours):
 
Tides and Currents Weather Stations Pressure Air Temp Water Temp Dewpoint Dewpoint Depression Visibility Wind Speed Wind Dir Waves Ship Positions

Oceanographic research ship Oceanus (USA)

Detailed information on ship capabilities available from University of Delaware's Ocean Information Center and ARCUS's ALIAS (Arctic Logistics Information and Support) project.

Owner: Oregon State University, Newport, OR. More information available from US FCC via Universal Licensing System.

Last reported at 2017-Oct-16 07:00 UTC. Time now 2017-Oct-20 07:07 UTC.
Position N 38°29' W 123°52'.

Length 23 m; draft 5.3 m.

Type: Other ship. MMSI: 367977000.

Date/timePositionNaut miles runAvg speedWind from/ knotsBaromVisibWave heightAir tempDewpointWater temp
2017-Oct-16 07:00N 38°29' W 123°52'611.2
2017-Oct-16 06:30N 38°23' W 123°50'611.0
2017-Oct-16 06:00N 38°18' W 123°48'511.0
2017-Oct-16 05:30N 38°13' W 123°46'510.5
2017-Oct-16 05:00N 38°08' W 123°44'510.6
2017-Oct-16 04:30N 38°03' W 123°43'511.0
2017-Oct-16 04:00N 37°57' W 123°41'611.2
2017-Oct-16 03:30N 37°52' W 123°39'11110.8
2017-Oct-15 17:13N 36°39' W 121°54'2 9.5
2017-Oct-15 17:00N 36°37' W 121°53'0 0.6
2017-Oct-15 16:30N 36°37' W 121°53'0 0.2
2017-Oct-15 16:00N 36°37' W 121°53'80 9.4
2017-Oct-15 07:30N 35°25' W 121°09'1711.4
2017-Oct-15 06:00N 35°12' W 120°55'611.4
2017-Oct-15 05:30N 35°08' W 120°51'510.6
2017-Oct-15 05:00N 35°03' W 120°47'7 4.2
2017-Oct-15 03:17N 34°57' W 120°44'2 5.6
2017-Oct-15 03:00N 34°55' W 120°44'2 4.1
2017-Oct-15 02:30N 34°54' W 120°41'2 4.3
2017-Oct-15 02:00N 34°54' W 120°44'2 4.5
2017-Oct-15 01:30N 34°51' W 120°43'2 4.1
2017-Oct-15 01:00N 34°52' W 120°41'1 2.9
2017-Oct-15 00:30N 34°53' W 120°39'1 1.4
2017-Oct-15 00:00N 34°53' W 120°40'1 1.9
2017-Oct-14 23:30N 34°53' W 120°41'1 1.8
2017-Oct-14 23:00N 34°53' W 120°42'1 2.0
2017-Oct-14 22:30N 34°54' W 120°43'1 1.7
2017-Oct-14 22:00N 34°55' W 120°42'1 1.2
2017-Oct-14 21:30N 34°55' W 120°41'1 2.2
2017-Oct-14 21:00N 34°54' W 120°43'1 2.4
2017-Oct-14 20:30N 34°53' W 120°43'1 2.2
2017-Oct-14 20:00N 34°53' W 120°41'1 1.9
2017-Oct-14 19:30N 34°53' W 120°40'1 2.4
2017-Oct-14 19:00N 34°53' W 120°42'1 1.9
2017-Oct-14 18:30N 34°53' W 120°43'1 2.6
2017-Oct-14 18:00N 34°55' W 120°43'1 2.5
2017-Oct-14 17:30N 34°54' W 120°41'1 2.4
2017-Oct-14 17:00N 34°55' W 120°43'1 2.3
2017-Oct-14 16:30N 34°53' W 120°43'1 1.7
2017-Oct-14 16:00N 34°53' W 120°43'1 1.9
2017-Oct-14 15:30N 34°52' W 120°42'2 4.4
2017-Oct-14 15:01N 34°52' W 120°40'3 5.0
2017-Oct-14 14:30N 34°52' W 120°43'1 2.9
2017-Oct-14 13:59N 34°53' W 120°44'3 5.2
2017-Oct-14 13:30N 34°55' W 120°44'1 0.6
2017-Oct-14 11:40N 34°56' W 120°44'1 4.9
2017-Oct-14 11:30N 34°55' W 120°44'3 5.0
2017-Oct-14 11:00N 34°53' W 120°44'2 3.1
2017-Oct-14 10:30N 34°51' W 120°44'3 5.4
2017-Oct-14 10:00N 34°52' W 120°41'0 0.7
2017-Oct-14 09:30N 34°52' W 120°41'2 4.6
2017-Oct-14 09:00N 34°52' W 120°44'3 5.5
2017-Oct-14 08:30N 34°54' W 120°44'3 5.4
2017-Oct-14 08:00N 34°57' W 120°44'1 0.6
2017-Oct-14 06:36N 34°56' W 120°44'1 5.4
2017-Oct-14 06:30N 34°56' W 120°44'3 5.6
2017-Oct-14 06:00N 34°53' W 120°44'2 3.4
2017-Oct-14 05:30N 34°52' W 120°42'2 4.9
2017-Oct-14 05:00N 34°52' W 120°40'3 5.8
2017-Oct-14 04:30N 34°52' W 120°43'2 3.7
2017-Oct-14 04:00N 34°53' W 120°44'7 5.7
2017-Oct-14 02:43N 35°01' W 120°44'1 5.6
2017-Oct-14 02:31N 35°02' W 120°44'3 5.0
2017-Oct-14 02:00N 35°01' W 120°41'3 1.3
2017-Oct-14 00:04N 35°01' W 120°44'1 5.9
2017-Oct-13 23:58N 35°01' W 120°44'3 4.7
2017-Oct-13 23:20N 35°01' W 120°40'1 3.7
2017-Oct-13 23:00N 35°00' W 120°40'3 4.6
2017-Oct-13 22:20N 34°57' W 120°41'2 3.5
2017-Oct-13 21:42N 34°59' W 120°44'0 0.4
2017-Oct-13 20:57N 34°59' W 120°44'2 4.8
2017-Oct-13 20:30N 35°01' W 120°44'2 3.3
2017-Oct-13 20:00N 35°02' W 120°42'2 4.4
2017-Oct-13 19:30N 35°01' W 120°40'3 1.9
2017-Oct-13 17:41N 35°00' W 120°44'1 5.6
2017-Oct-13 17:30N 35°01' W 120°44'2 4.5
2017-Oct-13 17:00N 35°01' W 120°41'1 2.9
2017-Oct-13 16:30N 35°01' W 120°40'3 1.9
2017-Oct-13 14:50N 35°01' W 120°44'1 3.6
2017-Oct-13 14:30N 35°02' W 120°43'2 4.8
2017-Oct-13 14:00N 35°01' W 120°40'2 3.9
2017-Oct-13 13:30N 34°59' W 120°40'3 2.0
2017-Oct-13 11:56N 35°00' W 120°44'2 4.3
2017-Oct-13 11:30N 35°02' W 120°44'0 0.4
2017-Oct-13 11:00N 35°02' W 120°44'2 4.1
2017-Oct-13 10:30N 35°00' W 120°43'4 1.9
2017-Oct-13 08:32N 34°56' W 120°43'0 2.3
2017-Oct-13 08:30N 34°56' W 120°43'1 2.2
2017-Oct-13 07:59N 34°56' W 120°44'1 2.4
2017-Oct-13 07:30N 34°56' W 120°46'1 2.3
2017-Oct-13 07:00N 34°56' W 120°47'0 0.7
2017-Oct-13 06:30N 34°56' W 120°47'2 4.5
2017-Oct-13 06:00N 34°56' W 120°50'0 1.0
2017-Oct-13 05:30N 34°56' W 120°51'2 3.3
2017-Oct-13 05:00N 34°57' W 120°53'1 2.0
2017-Oct-13 04:30N 34°56' W 120°54'2 4.4
2017-Oct-13 04:00N 34°57' W 120°57'0 0.6
2017-Oct-13 03:30N 34°56' W 120°57'2 3.5
2017-Oct-13 03:00N 34°58' W 120°55'2 4.7
2017-Oct-13 02:30N 34°59' W 120°53'2 4.6
2017-Oct-13 02:00N 34°60' W 120°50'4 2.2
2017-Oct-13 00:15N 35°02' W 120°46'0 1.1
2017-Oct-12 23:59N 35°02' W 120°46'1 1.1
2017-Oct-12 23:30N 35°02' W 120°45'0 1.0
2017-Oct-12 23:00N 35°02' W 120°44'0 0.9
2017-Oct-12 22:30N 35°02' W 120°44'0 1.0
2017-Oct-12 22:00N 35°02' W 120°43'0 0.3
2017-Oct-12 21:30N 35°02' W 120°43'0 0.4
2017-Oct-12 21:00N 35°02' W 120°43'0 0.3
2017-Oct-12 20:30N 35°02' W 120°43'0 0.0
2017-Oct-12 20:00N 35°02' W 120°43'0 0.1
2017-Oct-12 19:30N 35°02' W 120°43'0 0.3
2017-Oct-12 19:00N 35°02' W 120°42'2 3.9
2017-Oct-12 18:25N 35°01' W 120°40'2 4.8
2017-Oct-12 18:00N 34°59' W 120°40'3 2.1
2017-Oct-12 16:32N 35°01' W 120°44'0 5.0
2017-Oct-12 16:30N 35°01' W 120°44'1 2.8
2017-Oct-12 16:00N 35°02' W 120°45'0 0.5
2017-Oct-12 15:30N 35°02' W 120°44'0 0.3
2017-Oct-12 15:00N 35°02' W 120°44'2 4.4
2017-Oct-12 14:30N 35°02' W 120°42'2 3.4
2017-Oct-12 14:00N 35°01' W 120°40'4 2.5
2017-Oct-12 12:33N 34°59' W 120°44'1 5.2
2017-Oct-12 12:16N 35°01' W 120°44'1 5.2
2017-Oct-12 12:00N 35°02' W 120°44'1 1.0
2017-Oct-12 11:30N 35°01' W 120°44'1 0.4
2017-Oct-12 09:26N 35°00' W 120°44'1 2.9
2017-Oct-12 08:59N 35°02' W 120°44'1 0.3
2017-Oct-12 05:23N 35°01' W 120°44'1 3.4
2017-Oct-12 05:00N 35°02' W 120°43'2 3.6
2017-Oct-12 04:30N 35°02' W 120°41'1 2.1
2017-Oct-12 03:56N 35°01' W 120°40'1 1.7
2017-Oct-12 03:30N 35°02' W 120°39'1 1.8
2017-Oct-12 03:00N 35°03' W 120°39'2 2.0
2017-Oct-12 01:55N 35°01' W 120°40'1 1.9
2017-Oct-12 01:28N 34°60' W 120°40'1 1.8
2017-Oct-12 01:00N 34°59' W 120°40'0 0.6
2017-Oct-12 00:30N 34°59' W 120°40'1 2.2
2017-Oct-12 00:00N 35°01' W 120°40'1 2.2
2017-Oct-11 23:27N 35°02' W 120°40'1 1.9
2017-Oct-11 23:00N 35°03' W 120°39'2 1.7
2017-Oct-11 21:39N 35°00' W 120°40'0 2.5
2017-Oct-11 21:30N 34°60' W 120°40'1 1.9
2017-Oct-11 21:00N 34°59' W 120°40'1 2.4
2017-Oct-11 20:30N 35°00' W 120°40'1 2.4
2017-Oct-11 19:59N 35°01' W 120°40'1 2.5
2017-Oct-11 19:30N 35°03' W 120°39'2 1.8
2017-Oct-11 18:19N 35°00' W 120°40'1 2.2
2017-Oct-11 18:00N 34°60' W 120°40'1 2.0
2017-Oct-11 17:30N 34°59' W 120°40'1 1.2
2017-Oct-11 17:00N 34°59' W 120°40'6 0.4
2017-Oct-11 00:00N 34°53' W 120°41'1 2.0
2017-Oct-10 23:30N 34°53' W 120°42'1 1.6
2017-Oct-10 23:00N 34°53' W 120°43'1 1.7
2017-Oct-10 22:30N 34°54' W 120°43'1 1.3
2017-Oct-10 22:00N 34°55' W 120°42'1 1.9
2017-Oct-10 21:31N 34°54' W 120°41'1 1.8
2017-Oct-10 21:00N 34°55' W 120°42'1 1.5
2017-Oct-10 20:30N 34°54' W 120°43'1 1.9
2017-Oct-10 20:00N 34°53' W 120°43'1 1.9
2017-Oct-10 19:30N 34°53' W 120°42'1 2.0
2017-Oct-10 19:00N 34°53' W 120°40'0 0.4
2017-Oct-10 18:30N 34°53' W 120°41'1 1.9
2017-Oct-10 18:00N 34°53' W 120°42'1 1.6
2017-Oct-10 17:30N 34°53' W 120°43'1 1.8
2017-Oct-10 17:00N 34°54' W 120°43'1 1.4
2017-Oct-10 16:30N 34°55' W 120°42'1 1.4
2017-Oct-10 16:00N 34°55' W 120°41'1 2.7
2017-Oct-10 15:30N 34°55' W 120°43'6 2.8
2017-Oct-10 13:21N 35°01' W 120°44'1 2.9
2017-Oct-10 13:00N 35°02' W 120°44'1 0.8
2017-Oct-10 11:33N 35°01' W 120°44'0 4.9
2017-Oct-10 11:30N 35°01' W 120°44'1 1.1
2017-Oct-10 11:01N 35°01' W 120°44'0 0.3
2017-Oct-10 09:16N 35°01' W 120°44'1 4.0
2017-Oct-10 09:00N 35°02' W 120°44'1 1.7
2017-Oct-10 08:30N 35°01' W 120°45'0 0.4
2017-Oct-10 07:59N 35°01' W 120°45'0 0.4
2017-Oct-10 07:30N 35°01' W 120°45'1 0.8
2017-Oct-10 06:08N 35°00' W 120°44'0 1.8
2017-Oct-10 05:59N 35°01' W 120°44'1 3.0
2017-Oct-10 05:30N 35°02' W 120°44'2 0.9
2017-Oct-10 03:27N 35°00' W 120°44'1 1.3
2017-Oct-10 03:00N 35°01' W 120°44'2 3.3
2017-Oct-10 02:30N 35°02' W 120°44'2 3.0
2017-Oct-10 02:00N 35°01' W 120°44'0 0.9
2017-Oct-10 01:30N 35°00' W 120°43'2 3.3
2017-Oct-10 01:00N 35°01' W 120°45'2 0.8
2017-Oct-09 22:57N 35°00' W 120°44'2 3.9
2017-Oct-09 22:30N 35°02' W 120°44'1 1.4
2017-Oct-09 22:00N 35°02' W 120°45'1 1.3
2017-Oct-09 21:30N 35°02' W 120°44'6 8.9
2017-Oct-09 20:47N 35°02' W 120°52'311.9
2017-Oct-09 20:30N 35°02' W 120°56'612.2
2017-Oct-09 20:00N 35°02' W 121°03'3 5.3
2017-Oct-09 19:30N 35°01' W 121°00'811.8
2017-Oct-09 18:48N 35°05' W 120°51'312.0
2017-Oct-09 18:30N 35°06' W 120°47'4 7.5
2017-Oct-09 18:00N 35°08' W 120°43'2 4.4
2017-Oct-09 17:30N 35°06' W 120°42'4 7.3
2017-Oct-09 17:00N 35°02' W 120°42'2 3.8
2017-Oct-09 16:30N 35°01' W 120°42'1 1.5
2017-Oct-09 16:00N 35°00' W 120°41'0 1.0
2017-Oct-09 15:30N 35°01' W 120°41'0 0.8
2017-Oct-09 15:00N 35°00' W 120°41'1 2.5
2017-Oct-09 14:30N 34°60' W 120°40'0 0.9
2017-Oct-09 14:00N 34°60' W 120°40'5 7.2
2017-Oct-09 13:22N 34°56' W 120°43'4 9.2
2017-Oct-09 12:56N 34°52' W 120°42'0 0.7
2017-Oct-09 12:27N 34°51' W 120°42'4 8.3
2017-Oct-09 12:00N 34°55' W 120°43'5 9.6
2017-Oct-09 11:30N 34°59' W 120°40'0 0.5
2017-Oct-09 10:58N 34°59' W 120°40'0 0.1
2017-Oct-09 10:20N 34°59' W 120°40'0 1.1
2017-Oct-09 10:00N 34°59' W 120°40'1 1.1
2017-Oct-09 09:30N 34°59' W 120°41'1 1.7
2017-Oct-09 09:00N 34°60' W 120°42'1 0.3
2017-Oct-09 06:34N 34°60' W 120°42'0 2.1
2017-Oct-09 06:27N 34°60' W 120°42'1 2.1
2017-Oct-09 05:59N 34°59' W 120°41'1 2.0
2017-Oct-09 05:29N 34°59' W 120°40'1 1.4
2017-Oct-09 04:57N 34°59' W 120°41'1 1.9
2017-Oct-09 04:21N 34°60' W 120°42'1 0.2
2017-Oct-09 00:40N 34°59' W 120°41'0 1.3
2017-Oct-09 00:30N 34°59' W 120°41'1 1.7
2017-Oct-09 00:00N 34°59' W 120°40'2 3.0
2017-Oct-08 23:29N 35°01' W 120°40'1 1.5
2017-Oct-08 22:49N 35°01' W 120°39'0 0.4
2017-Oct-08 22:29N 35°01' W 120°39'0 0.4
2017-Oct-08 21:50N 35°01' W 120°40'1 2.0
2017-Oct-08 21:22N 35°00' W 120°40'0 0.6
2017-Oct-08 20:59N 35°00' W 120°40'0 0.3
2017-Oct-08 20:30N 35°00' W 120°40'1 2.7
2017-Oct-08 19:59N 35°01' W 120°41'0 0.9
2017-Oct-08 19:29N 35°01' W 120°42'0 0.1
2017-Oct-08 19:00N 35°01' W 120°42'0 0.2
2017-Oct-08 18:31N 35°01' W 120°42'1 2.1
2017-Oct-08 18:00N 34°60' W 120°41'1 1.9
2017-Oct-08 17:29N 34°59' W 120°41'0 0.6
2017-Oct-08 16:56N 34°59' W 120°40'0 0.5
2017-Oct-08 16:30N 34°59' W 120°40'1 1.7
2017-Oct-08 16:00N 34°60' W 120°40'0 0.5
2017-Oct-08 15:30N 34°60' W 120°40'1 1.8
2017-Oct-08 14:58N 34°60' W 120°41'0 1.0
2017-Oct-08 14:30N 34°60' W 120°40'0 0.7
2017-Oct-08 14:00N 34°60' W 120°41'2 3.3
2017-Oct-08 13:30N 34°60' W 120°43'1 1.1
2017-Oct-08 13:00N 34°60' W 120°42'1 1.1
2017-Oct-08 12:30N 34°59' W 120°41'1 1.2
2017-Oct-08 12:00N 34°59' W 120°40'0 0.8
2017-Oct-08 11:30N 34°59' W 120°40'2 4.5
2017-Oct-08 11:00N 34°60' W 120°43'0 0.1
2017-Oct-08 09:09N 34°60' W 120°43'0 1.4
2017-Oct-08 09:00N 34°60' W 120°42'1 1.4
2017-Oct-08 08:30N 34°60' W 120°41'1 1.3
2017-Oct-08 08:00N 34°59' W 120°41'1 1.6
2017-Oct-08 07:31N 34°59' W 120°40'1 1.5
2017-Oct-08 06:59N 34°59' W 120°41'1 1.9
2017-Oct-08 06:30N 34°60' W 120°42'1 0.5
2017-Oct-08 04:37N 34°60' W 120°43'0 2.2
2017-Oct-08 04:30N 34°60' W 120°42'1 2.0
2017-Oct-08 03:59N 34°59' W 120°41'1 1.9
2017-Oct-08 03:29N 34°59' W 120°40'1 1.1
2017-Oct-08 03:00N 34°59' W 120°40'0 0.8
2017-Oct-08 02:30N 34°59' W 120°40'0 0.3
2017-Oct-08 02:00N 34°59' W 120°40'0 0.7
2017-Oct-08 01:29N 34°59' W 120°41'0 0.6
2017-Oct-08 01:01N 34°59' W 120°40'0 0.6
2017-Oct-08 00:30N 34°59' W 120°40'0 0.4
2017-Oct-08 00:00N 34°59' W 120°40'1 2.9
2017-Oct-07 23:30N 35°01' W 120°40'1 1.7
2017-Oct-07 23:00N 35°01' W 120°40'1 2.2
2017-Oct-07 22:30N 35°00' W 120°40'0 0.5
2017-Oct-07 22:00N 35°00' W 120°40'0 0.3
2017-Oct-07 21:31N 35°01' W 120°40'1 0.9
2017-Oct-07 20:51N 35°00' W 120°41'1 1.7
2017-Oct-07 20:06N 34°59' W 120°42'0 1.3
2017-Oct-07 19:57N 34°59' W 120°42'1 1.5
2017-Oct-07 19:28N 34°59' W 120°41'0 0.3
2017-Oct-07 18:21N 34°59' W 120°41'0 0.5
2017-Oct-07 18:00N 34°59' W 120°41'1 2.1
2017-Oct-07 17:26N 34°60' W 120°40'0 0.6
2017-Oct-07 17:00N 34°60' W 120°40'0 0.9
2017-Oct-07 16:28N 34°59' W 120°40'1 1.6
2017-Oct-07 15:59N 34°59' W 120°41'1 0.4
2017-Oct-07 14:22N 34°59' W 120°40'3 1.1
2017-Oct-07 11:43N 34°56' W 120°43'1 2.8
2017-Oct-07 11:28N 34°56' W 120°44'1 1.7
2017-Oct-07 10:58N 34°57' W 120°45'1 1.2
2017-Oct-07 10:31N 34°57' W 120°45'2 3.1
2017-Oct-07 10:00N 34°57' W 120°47'1 1.2
2017-Oct-07 09:30N 34°57' W 120°48'2 3.7
2017-Oct-07 09:00N 34°57' W 120°50'1 2.2
2017-Oct-07 08:28N 34°56' W 120°52'1 1.6
2017-Oct-07 07:59N 34°57' W 120°53'0 0.4
2017-Oct-07 07:28N 34°56' W 120°53'3 4.4
2017-Oct-07 06:48N 34°57' W 120°57'0 0.1
2017-Oct-07 06:25N 34°57' W 120°57'1 3.3
2017-Oct-07 06:00N 34°57' W 120°55'3 4.9
2017-Oct-07 05:28N 34°58' W 120°52'2 5.0
2017-Oct-07 04:59N 34°58' W 120°49'4 5.0
2017-Oct-07 04:12N 34°59' W 120°45'2 4.8
2017-Oct-07 03:47N 34°59' W 120°42'0 0.5
2017-Oct-07 03:28N 34°59' W 120°42'0 0.2
2017-Oct-07 02:58N 34°59' W 120°42'1 1.3
2017-Oct-07 01:55N 35°00' W 120°43'1 1.2
2017-Oct-07 01:27N 34°60' W 120°43'1 1.2
2017-Oct-07 01:00N 34°60' W 120°42'4 6.2
2017-Oct-07 00:23N 34°58' W 120°47'3 8.0
2017-Oct-07 00:00N 34°57' W 120°50'1 1.9
2017-Oct-06 23:31N 34°56' W 120°51'0 1.0
2017-Oct-06 23:00N 34°56' W 120°50'0 0.4
2017-Oct-06 22:30N 34°56' W 120°50'1 1.1
2017-Oct-06 22:00N 34°56' W 120°50'2 3.6
2017-Oct-06 21:30N 34°56' W 120°47'0 0.6
2017-Oct-06 21:00N 34°56' W 120°47'1 1.3
2017-Oct-06 20:30N 34°57' W 120°47'0 0.7
2017-Oct-06 20:00N 34°56' W 120°47'0 0.2
2017-Oct-06 19:31N 34°56' W 120°47'0 0.5
2017-Oct-06 19:00N 34°56' W 120°47'0 0.1
2017-Oct-06 18:30N 34°56' W 120°47'1 2.2
2017-Oct-06 18:00N 34°57' W 120°46'5 8.3
2017-Oct-06 17:24N 34°59' W 120°41'0 0.1
2017-Oct-06 17:00N 34°59' W 120°41'0 0.1
2017-Oct-06 16:26N 34°59' W 120°40'1 2.8
2017-Oct-06 15:55N 34°59' W 120°42'0 0.4
2017-Oct-06 15:30N 34°59' W 120°42'1 0.9
2017-Oct-06 14:40N 35°00' W 120°43'1 6.1
2017-Oct-06 14:31N 35°01' W 120°42'1 1.6
2017-Oct-06 14:00N 35°00' W 120°42'0 0.6
2017-Oct-06 13:30N 35°00' W 120°41'1 0.3
2017-Oct-06 10:56N 34°60' W 120°42'1 1.8
2017-Oct-06 10:30N 34°59' W 120°41'1 1.7
2017-Oct-06 10:00N 34°59' W 120°40'0 0.4
2017-Oct-06 09:30N 34°59' W 120°40'1 1.7
2017-Oct-06 09:01N 34°60' W 120°41'1 1.7
2017-Oct-06 08:29N 34°60' W 120°42'  

Dump ship's entire track history